Time;durP1;ratioP1;P1;durP2;ratioP2;P2;SDS_P1;SDS_P2;PMS_P1;PMS_P2;Temp;Humidity;BMP_temperature;BMP_pressure;BME280_temperature;BME280_humidity;BME280_pressure;Samples;Min_cycle;Max_cycle;Signal;HPM_P1;HPM_P2
2022/10/17 00:00:39;;;;;;;13.17;10.30;;;;;;;13.21;100.00;101459.88;5036518;28;20414;-90
2022/10/17 00:03:05;;;;;;;12.87;10.27;;;;;;;13.26;100.00;101454.63;5043379;28;20029;-88
2022/10/17 00:05:30;;;;;;;12.47;10.50;;;;;;;13.28;100.00;101458.78;5036969;28;20036;-88
2022/10/17 00:07:55;;;;;;;11.97;10.43;;;;;;;13.30;100.00;101459.44;5054746;28;20373;-89
2022/10/17 00:10:21;;;;;;;13.43;9.93;;;;;;;13.33;100.00;101452.72;5030859;28;20033;-88
2022/10/17 00:12:47;;;;;;;14.77;10.10;;;;;;;13.30;100.00;101459.44;5044107;28;20465;-90
2022/10/17 00:15:17;;;;;;;13.23;10.50;;;;;;;13.32;100.00;101460.03;5048582;28;20101;-89
2022/10/17 00:17:43;;;;;;;14.77;10.50;;;;;;;13.28;100.00;101450.63;5035634;28;20056;-88
2022/10/17 00:20:09;;;;;;;11.83;10.00;;;;;;;13.32;100.00;101449.16;5033216;28;20033;-88
2022/10/17 00:22:34;;;;;;;13.57;10.20;;;;;;;13.28;100.00;101438.91;5039742;28;20029;-88
2022/10/17 00:25:00;;;;;;;13.00;10.23;;;;;;;13.32;100.00;101449.16;5052929;28;20033;-89
2022/10/17 00:27:25;;;;;;;13.23;10.67;;;;;;;13.31;100.00;101441.19;5050829;28;20053;-89
2022/10/17 00:29:51;;;;;;;11.57;10.27;;;;;;;13.31;100.00;101436.63;5051879;28;20120;-90
2022/10/17 00:32:17;;;;;;;13.20;10.93;;;;;;;13.32;100.00;101440.16;5038324;28;20103;-89
2022/10/17 00:34:42;;;;;;;14.40;10.67;;;;;;;13.30;100.00;101436.81;5048737;28;20421;-90
2022/10/17 00:37:08;;;;;;;15.00;10.93;;;;;;;13.32;100.00;101440.16;5000364;28;20059;-91
2022/10/17 00:39:33;;;;;;;14.00;10.90;;;;;;;13.34;100.00;101429.88;5042105;28;20016;-91
2022/10/17 00:41:59;;;;;;;13.47;10.70;;;;;;;13.30;100.00;101424.06;5048676;28;20021;-90
2022/10/17 00:44:30;;;;;;;13.43;11.03;;;;;;;13.33;100.00;101420.88;5035197;28;20064;-90
2022/10/17 00:46:57;;;;;;;14.20;11.27;;;;;;;13.30;100.00;101424.06;5051660;28;20033;-89
2022/10/17 00:49:26;;;;;;;14.13;11.40;;;;;;;13.31;100.00;101419.44;5017270;28;20029;-88
2022/10/17 00:51:53;;;;;;;12.87;11.17;;;;;;;13.37;100.00;101423.19;5035458;28;20044;-90
2022/10/17 00:54:21;;;;;;;13.47;11.07;;;;;;;13.33;100.00;101428.22;5044557;28;20087;-89
2022/10/17 00:56:48;;;;;;;12.60;11.10;;;;;;;13.35;100.00;101431.56;5042332;28;20025;-89
2022/10/17 00:59:15;;;;;;;13.20;10.97;;;;;;;13.33;100.00;101434.50;5026283;28;20057;-90
2022/10/17 01:01:47;;;;;;;14.53;11.53;;;;;;;13.30;100.00;101426.78;5053796;28;20039;-91
2022/10/17 01:04:13;;;;;;;13.60;11.53;;;;;;;13.35;100.00;101431.56;5041293;28;20029;-91
2022/10/17 01:06:38;;;;;;;13.00;11.13;;;;;;;13.41;100.00;101429.88;5017566;28;20026;-91
2022/10/17 01:09:04;;;;;;;14.70;11.37;;;;;;;13.40;100.00;101430.97;5051742;28;20078;-90
2022/10/17 01:11:37;;;;;;;13.63;11.30;;;;;;;13.43;100.00;101425.06;5055349;28;20092;-90
2022/10/17 01:14:13;;;;;;;14.77;11.83;;;;;;;13.31;100.00;101409.41;5046715;28;20056;-90
2022/10/17 01:16:51;;;;;;;15.40;12.20;;;;;;;13.44;100.00;101418.59;5021928;28;20025;-90
2022/10/17 01:19:22;;;;;;;15.10;11.47;;;;;;;13.44;100.00;101413.13;5034099;28;20037;-90
2022/10/17 01:22:05;;;;;;;14.23;12.07;;;;;;;13.40;100.00;101415.44;5047279;28;20079;-89
2022/10/17 01:24:36;;;;;;;13.17;11.63;;;;;;;13.48;100.00;101414.38;5043403;28;20052;-89
2022/10/17 01:27:34;;;;;;;15.37;12.57;;;;;;;13.51;100.00;101427.53;5048344;28;20016;-91
2022/10/17 01:29:59;;;;;;;16.83;13.07;;;;;;;13.56;100.00;101422.28;5022068;28;20033;-89
2022/10/17 01:32:34;;;;;;;14.60;12.80;;;;;;;13.60;100.00;101428.97;5039401;28;20041;-89
2022/10/17 01:35:12;;;;;;;16.83;12.80;;;;;;;13.71;100.00;101422.00;5034224;28;20474;-88
2022/10/17 01:37:47;;;;;;;17.00;13.40;;;;;;;13.75;100.00;101414.19;5018851;28;20033;-89
2022/10/17 01:40:52;;;;;;;16.33;12.80;;;;;;;13.81;100.00;101410.63;5032815;28;20064;-90
2022/10/17 01:43:37;;;;;;;16.58;13.20;;;;;;;13.88;100.00;101403.22;4982949;28;20049;-89
2022/10/17 01:46:08;;;;;;;15.70;12.97;;;;;;;13.98;100.00;101411.75;5033109;28;20040;-88
2022/10/17 01:48:37;;;;;;;14.50;12.40;;;;;;;14.02;100.00;101410.25;5034904;28;20037;-88
2022/10/17 01:51:11;;;;;;;17.17;13.37;;;;;;;14.08;100.00;101408.53;5049694;28;20025;-87
2022/10/17 01:53:44;;;;;;;16.00;12.55;;;;;;;14.14;100.00;101404.09;5047442;28;20025;-87
2022/10/17 01:56:13;;;;;;;16.10;13.20;;;;;;;14.18;100.00;101397.13;5053951;28;20055;-88
2022/10/17 01:59:16;;;;;;;15.43;12.53;;;;;;;14.20;100.00;101405.94;5052535;28;20048;-88
2022/10/17 02:01:46;;;;;;;14.77;12.27;;;;;;;14.18;100.00;101402.59;5034788;28;20044;-87
2022/10/17 02:04:11;;;;;;;15.47;12.70;;;;;;;14.26;100.00;101404.22;5052568;28;20025;-89
2022/10/17 02:07:32;;;;;;;15.67;12.37;;;;;;;14.30;100.00;101405.44;5034838;28;20025;-89
2022/10/17 02:09:57;;;;;;;14.87;11.63;;;;;;;14.32;100.00;101404.16;5053424;28;20025;-89
2022/10/17 02:12:44;;;;;;;15.53;12.17;;;;;;;14.30;100.00;101408.16;5041989;28;20515;-89
2022/10/17 02:15:27;;;;;;;14.17;12.30;;;;;;;14.23;100.00;101394.56;5021310;28;20088;-88
2022/10/17 02:18:14;;;;;;;13.83;12.10;;;;;;;14.30;100.00;101394.53;5050026;28;20021;-91
2022/10/17 02:20:55;;;;;;;13.77;12.00;;;;;;;14.28;100.00;101402.06;5053402;28;20036;-87
2022/10/17 02:23:36;;;;;;;15.37;12.20;;;;;;;14.25;100.00;101386.19;5034994;28;20421;-88
2022/10/17 02:26:18;;;;;;;15.17;11.60;;;;;;;14.30;100.00;101398.06;5047082;28;20040;-88
2022/10/17 02:28:47;;;;;;;17.17;12.87;;;;;;;14.29;100.00;101395.56;5034377;28;20538;-87
2022/10/17 02:31:22;;;;;;;17.33;11.97;;;;;;;14.29;100.00;101396.44;5035757;28;20053;-89
2022/10/17 02:33:55;;;;;;;16.73;12.73;;;;;;;14.26;100.00;101401.47;5030555;28;20037;-91
2022/10/17 02:36:31;;;;;;;15.20;12.07;;;;;;;14.13;100.00;101386.06;5034912;28;20092;-88
2022/10/17 02:38:59;;;;;;;18.07;12.40;;;;;;;14.25;100.00;101402.53;5033150;28;20028;-89
2022/10/17 02:41:25;;;;;;;15.03;12.43;;;;;;;14.23;100.00;101400.03;5051526;28;20600;-90
2022/10/17 02:43:52;;;;;;;16.70;12.57;;;;;;;14.25;100.00;101392.47;5042683;28;20108;-88
2022/10/17 02:46:21;;;;;;;15.13;12.97;;;;;;;14.22;100.00;101398.34;5053132;28;20032;-89
2022/10/17 02:48:50;;;;;;;14.57;11.90;;;;;;;14.22;100.00;101406.53;5039717;28;20116;-87
2022/10/17 02:51:23;;;;;;;16.27;12.43;;;;;;;14.20;100.00;101397.75;5039415;28;20102;-90
2022/10/17 02:54:18;;;;;;;18.23;12.70;;;;;;;14.22;100.00;101398.34;5052221;28;20458;-88
2022/10/17 02:57:10;;;;;;;;;;;;;;;14.26;100.00;101393.31;5032268;28;20025;-88
2022/10/17 02:59:36;;;;;;;15.57;12.87;;;;;;;14.18;100.00;101399.84;5024786;28;20015;-89
2022/10/17 03:02:04;;;;;;;18.90;12.90;;;;;;;14.19;100.00;101393.34;5019540;28;20033;-89
2022/10/17 03:04:29;;;;;;;15.37;13.27;;;;;;;14.21;100.00;101393.97;5037844;28;20029;-88
2022/10/17 03:06:54;;;;;;;15.70;13.77;;;;;;;14.21;100.00;101393.97;5049788;28;20029;-88
2022/10/17 03:09:20;;;;;;;18.43;14.07;;;;;;;14.26;100.00;101393.31;5001796;28;20056;-89
2022/10/17 03:11:45;;;;;;;16.07;13.43;;;;;;;14.25;100.00;101386.19;5052147;28;20039;-89
2022/10/17 03:14:10;;;;;;;19.00;14.63;;;;;;;14.36;100.00;101382.75;5035281;28;20021;-91
2022/10/17 03:16:36;;;;;;;17.27;13.50;;;;;;;14.45;100.00;101394.19;5034762;28;20033;-89
2022/10/17 03:19:02;;;;;;;17.70;13.40;;;;;;;14.51;100.00;101394.13;5036145;28;20115;-89
2022/10/17 03:21:27;;;;;;;16.50;13.83;;;;;;;14.46;100.00;101382.22;5019813;28;20026;-88
2022/10/17 03:23:52;;;;;;;17.07;13.40;;;;;;;14.55;100.00;101391.78;5015042;28;20036;-88
2022/10/17 03:26:18;;;;;;;18.67;12.57;;;;;;;14.53;100.00;101383.81;5019421;28;20059;-86
2022/10/17 03:28:43;;;;;;;16.63;12.67;;;;;;;14.62;100.00;101392.53;5040769;28;20029;-88
2022/10/17 03:31:13;;;;;;;14.63;11.83;;;;;;;14.66;100.00;101390.22;5050385;28;20055;-87
2022/10/17 03:33:38;;;;;;;15.90;12.53;;;;;;;14.68;100.00;101391.66;5036474;28;20025;-88
2022/10/17 03:36:08;;;;;;;15.93;12.27;;;;;;;14.72;100.00;101394.78;5041390;28;20032;-87
2022/10/17 03:38:34;;;;;;;15.23;12.20;;;;;;;14.75;100.00;101390.75;5032075;28;20080;-87
2022/10/17 03:41:00;;;;;;;15.80;11.97;;;;;;;14.85;100.00;101391.09;5035704;28;20025;-89
2022/10/17 03:43:25;;;;;;;19.30;12.07;;;;;;;14.87;100.00;101391.69;5009964;28;20060;-87
2022/10/17 03:45:50;;;;;;;14.77;11.23;;;;;;;14.84;100.00;101383.97;5040178;28;20072;-87
2022/10/17 03:48:16;;;;;;;15.07;11.27;;;;;;;14.97;100.00;101400.19;5042702;28;20047;-87
2022/10/17 03:50:41;;;;;;;15.90;11.00;;;;;;;14.94;100.00;101395.16;5040204;28;20035;-87
2022/10/17 03:53:06;;;;;;;13.90;10.63;;;;;;;14.96;100.00;101395.78;5046294;28;20098;-88
2022/10/17 03:55:32;;;;;;;16.87;10.63;;;;;;;14.91;100.00;101381.97;5056719;28;20059;-86
2022/10/17 03:57:57;;;;;;;13.40;10.63;;;;;;;14.90;100.00;101384.94;5046026;28;20025;-87
2022/10/17 04:00:22;;;;;;;15.70;10.67;;;;;;;14.81;100.00;101371.59;5017591;28;20028;-86
2022/10/17 04:02:48;;;;;;;13.53;11.13;;;;;;;14.88;100.00;101390.63;5054029;28;20029;-86
2022/10/17 04:05:13;;;;;;;13.73;11.13;;;;;;;14.79;100.00;101386.53;5041419;28;20448;-86
2022/10/17 04:07:39;;;;;;;14.97;10.70;;;;;;;14.83;100.00;101393.19;5043617;28;20052;-87
2022/10/17 04:10:04;;;;;;;18.13;11.07;;;;;;;14.83;100.00;101404.09;5045965;28;20041;-87
2022/10/17 04:12:30;;;;;;;14.23;10.57;;;;;;;14.87;100.00;101405.31;5036603;28;20055;-86
2022/10/17 04:15:38;;;;;;;15.90;11.27;;;;;;;14.89;100.00;101405.09;5036218;28;20111;-87
2022/10/17 04:18:03;;;;;;;15.10;11.20;;;;;;;14.97;100.00;101413.81;5034803;28;20041;-86
2022/10/17 04:20:28;;;;;;;15.83;11.60;;;;;;;15.02;100.00;101399.47;5035248;28;20416;-87
2022/10/17 04:22:53;;;;;;;19.10;11.80;;;;;;;15.01;100.00;101401.38;5033271;28;20487;-86
2022/10/17 04:25:19;;;;;;;15.50;11.50;;;;;;;15.10;100.00;101414.72;5032312;28;20357;-88
2022/10/17 04:27:44;;;;;;;16.53;10.63;;;;;;;15.22;100.00;101406.59;5035234;28;20037;-86
2022/10/17 04:30:10;;;;;;;17.10;10.30;;;;;;;15.29;100.00;101421.00;5032685;28;20159;-87
2022/10/17 04:32:37;;;;;;;14.60;10.37;;;;;;;15.47;100.00;101422.88;5023301;28;20053;-86
2022/10/17 04:35:03;;;;;;;15.60;10.10;;;;;;;15.52;100.00;101423.84;5033627;28;20029;-88
2022/10/17 04:37:29;;;;;;;15.47;10.37;;;;;;;15.58;100.00;101433.00;5032177;28;20037;-87
2022/10/17 04:39:54;;;;;;;11.77;9.30;;;;;;;15.63;100.00;101435.06;5033665;28;20033;-88
2022/10/17 04:42:19;;;;;;;14.50;9.83;;;;;;;15.66;100.00;101434.59;5018225;28;20088;-87
2022/10/17 04:44:45;;;;;;;12.53;8.97;;;;;;;15.61;100.00;101418.03;5034299;28;20030;-87
2022/10/17 04:47:10;;;;;;;9.77;8.73;;;;;;;15.61;100.00;101438.03;5040147;28;20034;-86
2022/10/17 04:49:35;;;;;;;15.13;9.47;;;;;;;15.66;100.00;101445.50;5023047;28;20037;-87
2022/10/17 04:52:01;;;;;;;10.77;8.60;;;;;;;15.67;100.00;101448.00;5048343;28;20163;-88
2022/10/17 04:54:26;;;;;;;12.57;8.60;;;;;;;15.73;100.00;101456.34;5054130;28;20028;-87
2022/10/17 04:56:51;;;;;;;13.50;8.60;;;;;;;15.73;100.00;101446.25;5054064;28;20219;-87
2022/10/17 04:59:17;;;;;;;14.10;8.20;;;;;;;15.68;100.00;101449.69;5043510;28;20079;-88
2022/10/17 05:01:42;;;;;;;12.30;8.30;;;;;;;15.68;100.00;101455.16;5052837;28;20079;-88
2022/10/17 05:04:07;;;;;;;12.60;8.30;;;;;;;15.72;100.00;101462.88;5045828;28;20036;-88
2022/10/17 05:06:33;;;;;;;10.27;7.97;;;;;;;15.63;100.00;101441.34;5040491;28;20025;-87
2022/10/17 05:08:58;;;;;;;12.90;8.40;;;;;;;15.67;100.00;101464.41;5019744;28;20038;-87
2022/10/17 05:11:26;;;;;;;12.77;8.20;;;;;;;15.65;100.00;101474.72;5047697;28;20425;-88
2022/10/17 05:13:58;;;;;;;12.50;7.87;;;;;;;15.68;100.00;101463.34;5052455;28;20432;-88
2022/10/17 05:16:25;;;;;;;12.07;8.53;;;;;;;15.67;100.00;101460.84;5052510;28;20039;-88
2022/10/17 05:18:53;;;;;;;11.77;8.37;;;;;;;15.65;100.00;101454.75;5039091;28;20062;-88
2022/10/17 05:21:20;;;;;;;12.73;8.60;;;;;;;15.60;100.00;101444.53;5034651;28;20474;-88
2022/10/17 05:23:45;;;;;;;13.80;9.00;;;;;;;15.66;100.00;101470.09;5023968;28;20112;-88
2022/10/17 05:26:11;;;;;;;13.63;8.57;;;;;;;15.62;100.00;101461.50;5013187;28;20057;-88
2022/10/17 05:28:37;;;;;;;12.87;8.83;;;;;;;15.61;100.00;101465.34;5034708;28;20444;-88
2022/10/17 05:31:07;;;;;;;13.30;8.83;;;;;;;15.60;100.00;101474.59;5034749;28;20060;-88
2022/10/17 05:33:34;;;;;;;13.33;8.07;;;;;;;15.62;100.00;101477.91;5035155;28;20116;-89
2022/10/17 05:35:59;;;;;;;12.73;8.83;;;;;;;15.65;100.00;101480.19;5039122;28;20377;-88
2022/10/17 05:38:26;;;;;;;14.30;8.70;;;;;;;15.66;100.00;101473.66;5051282;28;20043;-88
2022/10/17 05:40:55;;;;;;;13.63;8.53;;;;;;;15.64;100.00;101477.66;5055298;28;20048;-88
2022/10/17 05:43:20;;;;;;;13.53;8.90;;;;;;;15.72;100.00;101485.56;5024338;28;20037;-89
2022/10/17 05:45:46;;;;;;;14.53;8.70;;;;;;;15.67;100.00;101475.31;5049278;28;20507;-88
2022/10/17 05:48:11;;;;;;;13.30;9.37;;;;;;;15.72;100.00;101476.53;5053841;28;20033;-88
2022/10/17 05:50:36;;;;;;;14.33;9.53;;;;;;;15.66;100.00;101476.38;5048248;28;20052;-88
2022/10/17 05:53:02;;;;;;;14.07;9.50;;;;;;;15.74;100.00;101493.53;5044229;28;20445;-88
2022/10/17 05:55:27;;;;;;;14.03;9.13;;;;;;;15.76;100.00;101488.66;5035788;28;20025;-88
2022/10/17 05:57:52;;;;;;;14.70;9.50;;;;;;;15.73;100.00;101489.13;5053056;28;20162;-86
2022/10/17 06:00:19;;;;;;;14.10;9.17;;;;;;;15.76;100.00;101496.84;5035787;28;20116;-87
2022/10/17 06:02:45;;;;;;;14.77;9.33;;;;;;;15.81;100.00;101491.56;5054255;28;20029;-89
2022/10/17 06:05:11;;;;;;;15.43;10.20;;;;;;;15.81;100.00;101488.84;5032400;28;20555;-88
2022/10/17 06:07:36;;;;;;;15.87;9.20;;;;;;;15.81;100.00;101494.31;5052907;28;20051;-86
2022/10/17 06:10:02;;;;;;;13.97;9.47;;;;;;;15.79;100.00;101489.03;5034415;28;20037;-89
2022/10/17 06:12:28;;;;;;;13.90;9.70;;;;;;;15.80;100.00;101487.16;5042215;28;20120;-87
2022/10/17 06:14:53;;;;;;;15.70;9.97;;;;;;;15.81;100.00;101488.84;5035045;28;20443;-87
2022/10/17 06:17:18;;;;;;;13.03;9.30;;;;;;;15.80;100.00;101498.09;5054293;28;20025;-87
2022/10/17 06:19:44;;;;;;;13.87;9.53;;;;;;;15.80;100.00;101493.47;5053679;28;20032;-87
2022/10/17 06:22:09;;;;;;;13.70;9.40;;;;;;;15.75;100.00;101490.56;5053352;28;20033;-87
2022/10/17 06:24:35;;;;;;;13.97;9.60;;;;;;;15.80;100.00;101501.69;5031381;28;20040;-87
2022/10/17 06:27:00;;;;;;;15.43;9.90;;;;;;;15.78;100.00;101490.09;5032798;28;20492;-86
2022/10/17 06:29:25;;;;;;;12.40;8.87;;;;;;;15.79;100.00;101501.84;5041696;28;20523;-87
2022/10/17 06:31:51;;;;;;;11.87;7.93;;;;;;;15.77;100.00;101502.09;5023220;28;20054;-87
2022/10/17 06:34:16;;;;;;;12.30;8.87;;;;;;;15.79;100.00;101502.69;5037920;28;20095;-87
2022/10/17 06:36:42;;;;;;;14.53;9.13;;;;;;;15.81;100.00;101505.22;5046114;28;20397;-87
2022/10/17 06:39:07;;;;;;;14.03;9.30;;;;;;;15.82;100.00;101498.72;5032719;28;20462;-88
2022/10/17 06:41:32;;;;;;;13.90;8.73;;;;;;;15.87;100.00;101496.13;5025559;28;20021;-87
2022/10/17 06:43:58;;;;;;;13.27;9.10;;;;;;;15.90;100.00;101505.72;5038907;28;20339;-87
2022/10/17 06:46:25;;;;;;;13.17;8.93;;;;;;;15.86;100.00;101503.47;5037969;28;20477;-87
2022/10/17 06:48:51;;;;;;;14.13;8.97;;;;;;;15.90;100.00;101503.84;5033118;28;20033;-87
2022/10/17 06:51:17;;;;;;;12.70;8.90;;;;;;;15.96;100.00;101502.91;5018044;28;20373;-88
2022/10/17 06:53:42;;;;;;;14.67;9.60;;;;;;;16.01;100.00;101518.63;5032434;28;20038;-87
2022/10/17 06:56:09;;;;;;;12.03;8.97;;;;;;;16.03;100.00;101521.94;5029664;28;20033;-89
2022/10/17 06:58:37;;;;;;;18.07;9.17;;;;;;;16.13;100.00;101540.53;5046207;28;20025;-87
2022/10/17 07:01:09;;;;;;;12.20;8.27;;;;;;;16.17;100.00;101530.81;5021139;28;20033;-86
2022/10/17 07:03:35;;;;;;;9.57;7.90;;;;;;;16.22;100.00;101530.09;5020629;28;20143;-87
2022/10/17 07:06:00;;;;;;;11.63;8.07;;;;;;;16.24;100.00;101522.50;5019195;28;20064;-87
2022/10/17 07:08:26;;;;;;;13.07;7.87;;;;;;;16.31;100.00;101535.00;5018817;28;20431;-87
2022/10/17 07:10:52;;;;;;;14.07;7.67;;;;;;;16.28;100.00;101513.59;5017702;28;20196;-87
2022/10/17 07:13:18;;;;;;;10.17;7.57;;;;;;;16.37;100.00;101517.69;5016373;28;20037;-86
2022/10/17 07:15:44;;;;;;;11.90;8.10;;;;;;;16.45;100.00;101526.59;5022295;28;20452;-88
2022/10/17 07:18:09;;;;;;;10.90;8.00;;;;;;;16.45;100.00;101532.88;5005044;28;20136;-86
2022/10/17 07:20:35;;;;;;;13.10;7.30;;;;;;;16.45;100.00;101526.59;5020842;28;20032;-86
2022/10/17 07:23:00;;;;;;;13.17;7.43;;;;;;;16.50;100.00;101537.69;5020365;28;20496;-87
2022/10/17 07:25:25;;;;;;;14.43;7.67;;;;;;;16.53;100.00;101539.94;5021693;28;20040;-87
2022/10/17 07:27:52;;;;;;;11.20;7.63;;;;;;;16.58;100.00;101536.47;5022124;28;20400;-87
2022/10/17 07:30:17;;;;;;;16.27;7.87;;;;;;;16.60;100.00;101542.56;5021069;28;20119;-88
2022/10/17 07:32:43;;;;;;;11.63;7.30;;;;;;;16.60;100.00;101553.50;5025412;28;20043;-87
2022/10/17 07:35:10;;;;;;;12.13;6.93;;;;;;;16.60;100.00;101559.81;5028501;28;20168;-87
2022/10/17 07:37:35;;;;;;;11.63;7.33;;;;;;;16.63;100.00;101564.81;5028335;28;20339;-87
2022/10/17 07:40:01;;;;;;;8.83;6.93;;;;;;;16.64;100.00;101574.69;5023960;28;20041;-87
2022/10/17 07:42:27;;;;;;;11.33;6.67;;;;;;;16.66;100.00;101590.88;5029176;28;20091;-87
2022/10/17 07:44:53;;;;;;;14.27;7.00;;;;;;;16.70;100.00;101606.59;5028483;28;20037;-87
2022/10/17 07:47:19;;;;;;;11.77;6.90;;;;;;;16.66;100.00;101638.22;5019830;28;20083;-86
2022/10/17 07:49:44;;;;;;;15.70;8.50;;;;;;;16.67;100.00;101653.59;5028327;28;20397;-86
2022/10/17 07:52:11;;;;;;;12.43;7.60;;;;;;;16.64;100.00;101664.16;5036845;28;20056;-88
2022/10/17 07:54:37;;;;;;;10.40;6.53;;;;;;;16.65;100.00;101677.59;5047382;28;20102;-86
2022/10/17 07:57:02;;;;;;;9.27;6.23;;;;;;;16.58;100.00;101682.34;5048460;28;20021;-88
2022/10/17 07:59:28;;;;;;;14.63;6.40;;;;;;;16.57;100.00;101702.53;5051744;28;20408;-88
2022/10/17 08:01:56;;;;;;;11.63;5.77;;;;;;;16.62;100.00;101710.03;5023350;28;20120;-88
2022/10/17 08:04:22;;;;;;;9.97;5.77;;;;;;;16.55;100.00;101682.81;5040586;28;20362;-86
2022/10/17 08:06:48;;;;;;;16.17;7.57;;;;;;;16.45;100.00;101685.25;5025412;28;20056;-84
2022/10/17 08:09:14;;;;;;;15.30;7.10;;;;;;;16.33;100.00;101672.34;5028847;28;20052;-85
2022/10/17 08:11:39;;;;;;;11.33;7.20;;;;;;;16.27;100.00;101691.56;5024403;28;20037;-85
2022/10/17 08:14:04;;;;;;;11.20;7.60;;;;;;;16.19;100.00;101695.44;5027138;28;20132;-85
2022/10/17 08:16:30;;;;;;;13.50;7.23;;;;;;;16.19;100.00;101676.31;5010630;28;20083;-84
2022/10/17 08:18:55;;;;;;;11.47;7.87;;;;;;;16.10;100.00;101669.47;5026726;28;20044;-86
2022/10/17 08:21:21;;;;;;;11.83;7.40;;;;;;;16.10;100.00;101681.25;5027396;28;20055;-86
2022/10/17 08:23:46;;;;;;;14.33;7.13;;;;;;;16.12;100.00;101689.22;5028245;28;20068;-86
2022/10/17 08:26:15;;;;;;;12.20;7.23;;;;;;;16.05;100.00;101708.44;5025417;28;20400;-86
2022/10/17 08:28:41;;;;;;;9.87;7.23;;;;;;;16.02;100.00;101737.06;5026770;28;20063;-86
2022/10/17 08:31:09;;;;;;;14.70;7.30;;;;;;;16.03;100.00;101757.88;4987605;28;20550;-86
2022/10/17 08:33:35;;;;;;;11.60;7.60;;;;;;;15.99;100.00;101773.06;5027520;28;20448;-86
2022/10/17 08:36:01;;;;;;;11.23;7.60;;;;;;;15.96;100.00;101757.09;5026419;28;20374;-86
2022/10/17 08:38:30;;;;;;;13.63;8.30;;;;;;;15.94;100.00;101726.44;5021275;28;20474;-86
2022/10/17 08:41:03;;;;;;;14.93;8.20;;;;;;;15.97;100.00;101744.28;5023920;28;20122;-86
2022/10/17 08:43:31;;;;;;;11.30;8.03;;;;;;;16.02;100.00;101758.09;5023977;28;20037;-86
2022/10/17 08:46:01;;;;;;;14.10;8.73;;;;;;;15.97;100.00;101747.00;5023960;28;20463;-86
2022/10/17 08:48:30;;;;;;;13.00;8.13;;;;;;;15.89;100.00;101729.00;5024877;28;20045;-87
2022/10/17 08:51:32;;;;;;;12.33;8.40;;;;;;;15.96;100.00;101740.69;5025063;28;20471;-86
2022/10/17 08:54:11;;;;;;;9.63;8.53;;;;;;;15.95;100.00;101741.78;5015556;28;20903;-85
2022/10/17 08:56:42;;;;;;;17.30;9.83;;;;;;;15.89;100.00;101745.38;5024200;28;20094;-88
2022/10/17 08:59:13;;;;;;;12.57;8.80;;;;;;;15.89;100.00;101748.13;5023892;28;20064;-89
2022/10/17 09:01:56;;;;;;;12.80;9.30;;;;;;;15.91;100.00;101743.28;5022543;28;20503;-88
2022/10/17 09:04:34;;;;;;;13.80;8.90;;;;;;;15.89;100.00;101736.38;5014397;28;20191;-86
2022/10/17 09:07:15;;;;;;;14.10;8.63;;;;;;;15.86;100.00;101738.47;5024097;28;20063;-88
2022/10/17 09:10:00;;;;;;;14.37;9.03;;;;;;;15.85;100.00;101738.72;5024503;28;20441;-89
2022/10/17 09:12:32;;;;;;;12.40;8.73;;;;;;;15.84;100.00;101743.34;5023677;28;20040;-88
2022/10/17 09:15:25;;;;;;;12.80;8.40;;;;;;;15.85;100.00;101752.38;5024220;28;20146;-90
2022/10/17 09:18:01;;;;;;;12.63;8.40;;;;;;;15.83;100.00;101762.72;5023932;28;20378;-88
2022/10/17 09:20:31;;;;;;;13.13;8.30;;;;;;;15.84;100.00;101786.22;5023539;28;20033;-89
2022/10/17 09:23:15;;;;;;;13.80;9.17;;;;;;;15.83;100.00;101800.97;5023476;28;20037;-88
2022/10/17 09:25:43;;;;;;;15.48;9.10;;;;;;;15.82;100.00;101802.00;5024230;28;20097;-88
2022/10/17 09:28:09;;;;;;;13.30;9.27;;;;;;;15.74;100.00;101788.59;5021261;28;20041;-89
2022/10/17 09:30:50;;;;;;;13.80;9.40;;;;;;;15.81;100.00;101809.34;5024124;28;20036;-86
2022/10/17 09:33:24;;;;;;;15.93;9.43;;;;;;;15.77;100.00;101799.91;5023738;28;20055;-87
2022/10/17 09:35:50;;;;;;;14.43;9.75;;;;;;;15.75;100.00;101779.31;5023943;28;20076;-87
2022/10/17 09:38:21;;;;;;;15.50;10.10;;;;;;;15.74;100.00;101742.97;5023311;28;20082;-89
2022/10/17 09:40:54;;;;;;;17.80;11.47;;;;;;;15.76;100.00;101723.63;5022562;28;20385;-89
2022/10/17 09:43:21;;;;;;;15.93;11.57;;;;;;;15.64;100.00;101683.41;5019462;28;20082;-87
2022/10/17 09:46:05;;;;;;;16.70;10.57;;;;;;;15.79;100.00;101710.38;5020836;28;20155;-89
2022/10/17 09:48:38;;;;;;;14.82;10.63;;;;;;;15.69;100.00;101724.53;5021054;28;20025;-90
2022/10/17 09:51:06;;;;;;;16.57;11.00;;;;;;;15.80;100.00;101749.47;5019616;28;20033;-90
2022/10/17 09:53:38;;;;;;;15.23;10.37;;;;;;;15.81;100.00;101776.56;5019322;28;20465;-89
2022/10/17 09:56:10;;;;;;;16.90;10.93;;;;;;;15.85;100.00;101785.16;4993662;28;20037;-90
2022/10/17 09:58:48;;;;;;;17.37;12.60;;;;;;;15.87;100.00;101802.19;5020595;28;20033;-91
2022/10/17 10:01:25;;;;;;;20.67;14.33;;;;;;;15.81;100.00;101773.84;5019974;28;20037;-92
2022/10/17 10:04:12;;;;;;;20.10;12.83;;;;;;;15.89;100.00;101771.91;4997811;28;20037;-92
2022/10/17 10:06:39;;;;;;;16.50;11.27;;;;;;;15.89;100.00;101761.78;5020471;28;20215;-92
2022/10/17 10:09:06;;;;;;;19.07;11.73;;;;;;;15.89;100.00;101750.84;4997032;28;20500;-93
2022/10/17 10:11:53;;;;;;;16.80;12.50;;;;;;;15.97;100.00;101758.75;5019681;28;20048;-94
2022/10/17 10:14:34;;;;;;;22.00;12.70;;;;;;;15.98;100.00;101751.38;5018030;28;20086;-92
2022/10/17 10:17:02;;;;;;;18.50;11.23;;;;;;;15.99;100.00;101755.81;5020011;28;20400;-89
2022/10/17 10:19:36;;;;;;;16.40;11.57;;;;;;;15.99;100.00;101772.19;5009652;28;20801;-95
2022/10/17 10:22:02;;;;;;;;;;;;;;;16.09;100.00;101786.19;5020218;28;20583;-94
2022/10/17 10:24:29;;;;;;;15.03;10.37;;;;;;;16.04;100.00;101780.56;5010496;28;19931;-91
2022/10/17 10:27:02;;;;;;;16.63;10.90;;;;;;;16.09;100.00;101782.59;5019477;28;20046;-90
2022/10/17 10:29:42;;;;;;;19.63;12.17;;;;;;;16.10;100.00;101792.50;5022681;28;20045;-93
2022/10/17 10:32:19;;;;;;;18.60;12.77;;;;;;;16.15;100.00;101806.31;5002456;28;20064;-92
2022/10/17 10:34:48;;;;;;;17.77;12.50;;;;;;;16.16;100.00;101806.09;5019764;28;20045;-91
2022/10/17 10:37:26;;;;;;;17.17;12.50;;;;;;;16.19;100.00;101818.47;5020268;28;20538;-92
2022/10/17 10:39:55;;;;;;;16.87;10.87;;;;;;;16.22;100.00;101828.97;5021820;28;21443;-92
2022/10/17 10:42:40;;;;;;;17.40;11.70;;;;;;;16.14;100.00;101815.59;5012796;28;20119;-90
2022/10/17 10:45:17;;;;;;;12.90;10.03;;;;;;;16.16;100.00;101821.69;5016928;28;20040;-92
2022/10/17 10:47:57;;;;;;;14.70;9.70;;;;;;;16.25;100.00;101833.16;5021864;28;20033;-89
2022/10/17 10:50:31;;;;;;;13.33;9.63;;;;;;;16.23;100.00;101849.78;5021083;28;20029;-89
2022/10/17 10:53:15;;;;;;;18.50;10.73;;;;;;;16.22;100.00;101858.22;5020726;28;20504;-89
2022/10/17 10:55:47;;;;;;;15.18;10.60;;;;;;;16.23;100.00;101862.63;5021933;28;20095;-88
2022/10/17 10:58:24;;;;;;;16.40;11.67;;;;;;;16.07;100.00;101834.78;5010985;28;20047;-89
2022/10/17 11:00:50;;;;;;;15.70;11.07;;;;;;;16.18;100.00;101866.03;5021414;28;20051;-91
2022/10/17 11:03:25;;;;;;;12.23;8.73;;;;;;;16.21;100.00;101873.78;5021344;28;20123;-91
2022/10/17 11:05:58;;;;;;;14.27;10.70;;;;;;;16.16;100.00;101870.88;5021716;28;20029;-89
2022/10/17 11:08:37;;;;;;;15.13;9.50;;;;;;;16.14;100.00;101879.31;5022405;28;20143;-89
2022/10/17 11:11:16;;;;;;;11.80;8.60;;;;;;;16.13;100.00;101871.31;5022546;28;20037;-89
2022/10/17 11:13:59;;;;;;;11.87;8.40;;;;;;;16.18;100.00;101885.16;5021281;28;20040;-89
2022/10/17 11:16:34;;;;;;;11.73;8.53;;;;;;;16.14;100.00;101887.53;5021906;28;20469;-89
2022/10/17 11:19:19;;;;;;;12.80;9.27;;;;;;;16.16;100.00;101881.81;5011849;28;20136;-89